sensor_id;sensor_type;location;lat;lon;timestamp;pressure;altitude;pressure_sealevel;temperature;humidity
49463;BME280;35357;51.722;0.500;2023-06-19T00:01:00;100540.91;;;18.05;100.00
49463;BME280;35357;51.722;0.500;2023-06-19T00:03:27;100543.01;;;19.11;96.88
49463;BME280;35357;51.722;0.500;2023-06-19T00:05:54;100542.49;;;18.65;96.60
49463;BME280;35357;51.722;0.500;2023-06-19T00:08:21;100543.02;;;18.89;96.65
49463;BME280;35357;51.722;0.500;2023-06-19T00:10:49;100541.67;;;17.33;100.00
49463;BME280;35357;51.722;0.500;2023-06-19T00:13:16;100544.55;;;18.81;96.01
49463;BME280;35357;51.722;0.500;2023-06-19T00:15:43;100545.65;;;16.75;100.00
49463;BME280;35357;51.722;0.500;2023-06-19T00:18:11;100551.18;;;18.66;98.21
49463;BME280;35357;51.722;0.500;2023-06-19T00:20:38;100552.43;;;18.82;97.47
49463;BME280;35357;51.722;0.500;2023-06-19T00:23:05;100550.57;;;18.60;95.65
49463;BME280;35357;51.722;0.500;2023-06-19T00:25:33;100545.69;;;17.69;100.00
49463;BME280;35357;51.722;0.500;2023-06-19T00:27:59;100547.99;;;19.09;95.48
49463;BME280;35357;51.722;0.500;2023-06-19T00:30:27;100546.81;;;19.02;95.71
49463;BME280;35357;51.722;0.500;2023-06-19T00:32:54;100553.36;;;18.50;94.30
49463;BME280;35357;51.722;0.500;2023-06-19T00:35:23;100550.24;;;18.41;97.10
49463;BME280;35357;51.722;0.500;2023-06-19T00:37:50;100548.44;;;17.82;100.00
49463;BME280;35357;51.722;0.500;2023-06-19T00:40:26;100550.53;;;17.87;100.00
49463;BME280;35357;51.722;0.500;2023-06-19T00:42:53;100553.94;;;18.29;98.40
49463;BME280;35357;51.722;0.500;2023-06-19T00:45:21;100553.70;;;18.94;97.66
49463;BME280;35357;51.722;0.500;2023-06-19T00:47:49;100551.72;;;18.00;98.44
49463;BME280;35357;51.722;0.500;2023-06-19T00:50:16;100550.62;;;17.57;100.00
49463;BME280;35357;51.722;0.500;2023-06-19T00:52:43;100553.01;;;18.36;99.32
49463;BME280;35357;51.722;0.500;2023-06-19T00:55:11;100552.51;;;17.49;100.00
49463;BME280;35357;51.722;0.500;2023-06-19T00:57:39;100547.48;;;16.95;100.00
49463;BME280;35357;51.722;0.500;2023-06-19T01:00:09;100550.62;;;17.90;100.00
49463;BME280;35357;51.722;0.500;2023-06-19T01:02:37;100555.03;;;18.73;97.67
49463;BME280;35357;51.722;0.500;2023-06-19T01:05:05;100555.85;;;18.56;98.49
49463;BME280;35357;51.722;0.500;2023-06-19T01:07:38;100555.63;;;17.43;100.00
49463;BME280;35357;51.722;0.500;2023-06-19T01:10:12;100562.45;;;17.61;100.00
49463;BME280;35357;51.722;0.500;2023-06-19T01:12:42;100567.62;;;17.28;100.00
49463;BME280;35357;51.722;0.500;2023-06-19T01:15:11;100565.70;;;16.83;100.00
49463;BME280;35357;51.722;0.500;2023-06-19T01:17:39;100571.74;;;18.65;100.00
49463;BME280;35357;51.722;0.500;2023-06-19T01:20:07;100574.06;;;17.05;100.00
49463;BME280;35357;51.722;0.500;2023-06-19T01:22:34;100575.10;;;16.67;100.00
49463;BME280;35357;51.722;0.500;2023-06-19T01:25:02;100575.80;;;17.02;100.00
49463;BME280;35357;51.722;0.500;2023-06-19T01:27:30;100581.35;;;16.81;100.00
49463;BME280;35357;51.722;0.500;2023-06-19T01:30:00;100579.46;;;15.97;100.00
49463;BME280;35357;51.722;0.500;2023-06-19T01:32:34;100582.66;;;16.09;100.00
49463;BME280;35357;51.722;0.500;2023-06-19T01:35:05;100583.07;;;16.37;100.00
49463;BME280;35357;51.722;0.500;2023-06-19T01:37:35;100579.17;;;16.85;100.00
49463;BME280;35357;51.722;0.500;2023-06-19T01:40:05;100577.55;;;16.61;100.00
49463;BME280;35357;51.722;0.500;2023-06-19T01:42:36;100576.18;;;16.33;100.00
49463;BME280;35357;51.722;0.500;2023-06-19T01:45:05;100575.95;;;15.56;100.00
49463;BME280;35357;51.722;0.500;2023-06-19T01:47:32;100573.15;;;16.59;100.00
49463;BME280;35357;51.722;0.500;2023-06-19T01:50:00;100573.99;;;17.65;100.00
49463;BME280;35357;51.722;0.500;2023-06-19T01:52:28;100577.70;;;18.07;100.00
49463;BME280;35357;51.722;0.500;2023-06-19T01:54:55;100582.00;;;18.43;100.00
49463;BME280;35357;51.722;0.500;2023-06-19T01:57:22;100585.29;;;18.18;100.00
49463;BME280;35357;51.722;0.500;2023-06-19T01:59:50;100581.17;;;18.40;100.00
49463;BME280;35357;51.722;0.500;2023-06-19T02:02:17;100580.60;;;18.99;97.74
49463;BME280;35357;51.722;0.500;2023-06-19T02:04:43;100579.51;;;18.57;98.90
49463;BME280;35357;51.722;0.500;2023-06-19T02:07:11;100582.09;;;17.42;100.00
49463;BME280;35357;51.722;0.500;2023-06-19T02:09:38;100579.36;;;16.41;100.00
49463;BME280;35357;51.722;0.500;2023-06-19T02:12:06;100587.85;;;18.41;99.55
49463;BME280;35357;51.722;0.500;2023-06-19T02:14:34;100591.71;;;16.51;100.00
49463;BME280;35357;51.722;0.500;2023-06-19T02:17:01;100591.30;;;18.24;100.00
49463;BME280;35357;51.722;0.500;2023-06-19T02:19:28;100595.44;;;18.01;98.78
49463;BME280;35357;51.722;0.500;2023-06-19T02:21:55;100591.90;;;18.51;96.08
49463;BME280;35357;51.722;0.500;2023-06-19T02:24:22;100592.92;;;17.14;100.00
49463;BME280;35357;51.722;0.500;2023-06-19T02:26:50;100595.83;;;18.53;97.40
49463;BME280;35357;51.722;0.500;2023-06-19T02:29:17;100597.12;;;17.90;99.46
49463;BME280;35357;51.722;0.500;2023-06-19T02:31:44;100599.22;;;18.07;98.71
49463;BME280;35357;51.722;0.500;2023-06-19T02:34:11;100600.67;;;16.64;100.00
49463;BME280;35357;51.722;0.500;2023-06-19T02:36:39;100606.24;;;17.65;100.00
49463;BME280;35357;51.722;0.500;2023-06-19T02:39:06;100609.96;;;17.76;99.76
49463;BME280;35357;51.722;0.500;2023-06-19T02:41:33;100614.05;;;18.13;97.08
49463;BME280;35357;51.722;0.500;2023-06-19T02:44:01;100620.93;;;18.19;97.21
49463;BME280;35357;51.722;0.500;2023-06-19T02:46:28;100629.22;;;18.66;94.35
49463;BME280;35357;51.722;0.500;2023-06-19T02:48:55;100635.29;;;18.86;93.23
49463;BME280;35357;51.722;0.500;2023-06-19T02:51:22;100641.38;;;19.00;92.35
49463;BME280;35357;51.722;0.500;2023-06-19T02:53:50;100647.69;;;19.16;91.45
49463;BME280;35357;51.722;0.500;2023-06-19T02:56:17;100647.65;;;18.96;90.65
49463;BME280;35357;51.722;0.500;2023-06-19T02:58:44;100641.31;;;19.04;89.77
49463;BME280;35357;51.722;0.500;2023-06-19T03:01:11;100642.50;;;19.01;89.33
49463;BME280;35357;51.722;0.500;2023-06-19T03:03:38;100645.06;;;19.09;89.01
49463;BME280;35357;51.722;0.500;2023-06-19T03:06:06;100645.86;;;19.42;87.65
49463;BME280;35357;51.722;0.500;2023-06-19T03:08:34;100646.74;;;19.20;89.14
49463;BME280;35357;51.722;0.500;2023-06-19T03:11:01;100649.95;;;18.96;88.89
49463;BME280;35357;51.722;0.500;2023-06-19T03:13:28;100652.97;;;18.96;88.75
49463;BME280;35357;51.722;0.500;2023-06-19T03:15:56;100650.37;;;18.97;88.68
49463;BME280;35357;51.722;0.500;2023-06-19T03:18:23;100650.12;;;19.02;88.42
49463;BME280;35357;51.722;0.500;2023-06-19T03:20:49;100656.78;;;18.43;89.42
49463;BME280;35357;51.722;0.500;2023-06-19T03:23:17;100662.93;;;19.15;88.79
49463;BME280;35357;51.722;0.500;2023-06-19T03:25:44;100665.71;;;18.76;89.19
49463;BME280;35357;51.722;0.500;2023-06-19T03:28:11;100671.49;;;19.44;88.36
49463;BME280;35357;51.722;0.500;2023-06-19T03:30:38;100674.05;;;18.77;88.65
49463;BME280;35357;51.722;0.500;2023-06-19T03:33:05;100676.84;;;18.70;89.11
49463;BME280;35357;51.722;0.500;2023-06-19T03:35:33;100678.46;;;18.78;89.30
49463;BME280;35357;51.722;0.500;2023-06-19T03:38:00;100680.10;;;19.10;89.06
49463;BME280;35357;51.722;0.500;2023-06-19T03:40:27;100680.59;;;18.68;88.60
49463;BME280;35357;51.722;0.500;2023-06-19T03:42:54;100682.13;;;18.69;88.11
49463;BME280;35357;51.722;0.500;2023-06-19T03:45:22;100685.88;;;18.97;88.03
49463;BME280;35357;51.722;0.500;2023-06-19T03:47:49;100686.75;;;18.66;87.83
49463;BME280;35357;51.722;0.500;2023-06-19T03:50:16;100690.45;;;18.83;88.07
49463;BME280;35357;51.722;0.500;2023-06-19T03:52:43;100697.01;;;19.12;87.68
49463;BME280;35357;51.722;0.500;2023-06-19T03:55:10;100699.19;;;18.84;87.74
49463;BME280;35357;51.722;0.500;2023-06-19T03:57:37;100707.15;;;19.12;87.45
49463;BME280;35357;51.722;0.500;2023-06-19T04:00:05;66588.06;;;14.75;81.20
49463;BME280;35357;51.722;0.500;2023-06-19T04:02:32;100717.53;;;18.96;87.02
49463;BME280;35357;51.722;0.500;2023-06-19T04:04:59;100718.16;;;18.76;87.68
49463;BME280;35357;51.722;0.500;2023-06-19T04:07:26;100718.65;;;19.00;87.76
49463;BME280;35357;51.722;0.500;2023-06-19T04:09:54;100724.49;;;18.56;88.38
49463;BME280;35357;51.722;0.500;2023-06-19T04:12:21;100728.38;;;18.80;88.05
49463;BME280;35357;51.722;0.500;2023-06-19T04:14:48;100729.73;;;18.71;88.55
49463;BME280;35357;51.722;0.500;2023-06-19T04:17:16;100732.52;;;18.79;88.04
49463;BME280;35357;51.722;0.500;2023-06-19T04:19:44;100739.25;;;18.34;89.79
49463;BME280;35357;51.722;0.500;2023-06-19T04:22:11;100743.01;;;18.88;89.51
49463;BME280;35357;51.722;0.500;2023-06-19T04:24:38;100741.89;;;18.98;89.26
49463;BME280;35357;51.722;0.500;2023-06-19T04:27:06;100746.69;;;18.67;89.41
49463;BME280;35357;51.722;0.500;2023-06-19T04:29:33;100746.07;;;18.76;89.67
49463;BME280;35357;51.722;0.500;2023-06-19T04:32:01;100751.58;;;17.75;93.17
49463;BME280;35357;51.722;0.500;2023-06-19T04:34:29;100752.34;;;17.99;91.93
49463;BME280;35357;51.722;0.500;2023-06-19T04:36:56;100757.04;;;18.37;92.44
49463;BME280;35357;51.722;0.500;2023-06-19T04:39:23;100756.56;;;18.42;91.88
49463;BME280;35357;51.722;0.500;2023-06-19T04:41:51;100754.56;;;18.19;93.92
49463;BME280;35357;51.722;0.500;2023-06-19T04:44:18;100755.43;;;18.61;91.40
49463;BME280;35357;51.722;0.500;2023-06-19T04:46:45;100762.34;;;18.59;91.13
49463;BME280;35357;51.722;0.500;2023-06-19T04:49:12;100768.13;;;18.61;91.13
49463;BME280;35357;51.722;0.500;2023-06-19T04:51:41;100770.24;;;18.90;90.02
49463;BME280;35357;51.722;0.500;2023-06-19T04:54:08;100770.05;;;17.99;92.53
49463;BME280;35357;51.722;0.500;2023-06-19T04:56:35;100771.32;;;18.78;90.79
49463;BME280;35357;51.722;0.500;2023-06-19T04:59:03;100770.68;;;18.55;90.14
49463;BME280;35357;51.722;0.500;2023-06-19T05:01:30;100772.28;;;18.60;91.17
49463;BME280;35357;51.722;0.500;2023-06-19T05:03:57;100775.23;;;18.23;93.62
49463;BME280;35357;51.722;0.500;2023-06-19T05:06:24;100772.43;;;17.88;92.85
49463;BME280;35357;51.722;0.500;2023-06-19T05:08:51;100769.87;;;18.41;92.41
49463;BME280;35357;51.722;0.500;2023-06-19T05:11:18;100772.12;;;18.21;93.32
49463;BME280;35357;51.722;0.500;2023-06-19T05:13:45;100776.98;;;18.03;93.25
49463;BME280;35357;51.722;0.500;2023-06-19T05:16:12;100779.65;;;18.78;91.27
49463;BME280;35357;51.722;0.500;2023-06-19T05:18:40;100782.01;;;18.86;90.79
49463;BME280;35357;51.722;0.500;2023-06-19T05:21:06;100787.67;;;18.54;92.76
49463;BME280;35357;51.722;0.500;2023-06-19T05:23:33;100791.00;;;19.17;90.06
49463;BME280;35357;51.722;0.500;2023-06-19T05:26:00;100791.28;;;18.04;93.34
49463;BME280;35357;51.722;0.500;2023-06-19T05:28:27;100789.12;;;18.49;93.99
49463;BME280;35357;51.722;0.500;2023-06-19T05:30:54;100795.71;;;18.66;92.12
49463;BME280;35357;51.722;0.500;2023-06-19T05:33:22;100795.33;;;18.17;94.04
49463;BME280;35357;51.722;0.500;2023-06-19T05:35:49;100786.87;;;18.52;92.20
49463;BME280;35357;51.722;0.500;2023-06-19T05:38:16;100782.43;;;18.86;93.14
49463;BME280;35357;51.722;0.500;2023-06-19T05:40:44;100782.42;;;18.52;93.52
49463;BME280;35357;51.722;0.500;2023-06-19T05:43:11;100781.94;;;19.11;90.36
49463;BME280;35357;51.722;0.500;2023-06-19T05:45:37;100784.07;;;18.74;90.97
49463;BME280;35357;51.722;0.500;2023-06-19T05:48:05;100783.90;;;19.32;90.17
49463;BME280;35357;51.722;0.500;2023-06-19T05:50:33;100783.93;;;18.28;93.29
49463;BME280;35357;51.722;0.500;2023-06-19T05:52:59;100789.46;;;19.40;90.27
49463;BME280;35357;51.722;0.500;2023-06-19T05:55:27;100792.05;;;19.65;88.60
49463;BME280;35357;51.722;0.500;2023-06-19T05:57:53;100792.67;;;18.92;91.28
49463;BME280;35357;51.722;0.500;2023-06-19T06:00:20;100794.65;;;19.17;89.98
49463;BME280;35357;51.722;0.500;2023-06-19T06:02:47;100797.06;;;19.80;87.49
49463;BME280;35357;51.722;0.500;2023-06-19T06:05:15;100796.72;;;18.86;90.21
49463;BME280;35357;51.722;0.500;2023-06-19T06:07:42;100797.60;;;19.09;90.91
49463;BME280;35357;51.722;0.500;2023-06-19T06:10:10;100802.03;;;18.53;92.77
49463;BME280;35357;51.722;0.500;2023-06-19T06:12:37;100802.53;;;19.53;89.26
49463;BME280;35357;51.722;0.500;2023-06-19T06:15:06;100798.44;;;19.15;90.26
49463;BME280;35357;51.722;0.500;2023-06-19T06:17:34;100800.86;;;18.70;92.66
49463;BME280;35357;51.722;0.500;2023-06-19T06:20:00;100797.76;;;19.07;91.44
49463;BME280;35357;51.722;0.500;2023-06-19T06:22:27;100800.41;;;17.82;97.40
49463;BME280;35357;51.722;0.500;2023-06-19T06:24:55;100801.58;;;17.35;98.11
49463;BME280;35357;51.722;0.500;2023-06-19T06:27:22;100798.19;;;19.41;92.30
49463;BME280;35357;51.722;0.500;2023-06-19T06:29:49;100799.27;;;19.61;90.94
49463;BME280;35357;51.722;0.500;2023-06-19T06:32:16;100796.29;;;20.18;89.13
49463;BME280;35357;51.722;0.500;2023-06-19T06:34:43;100801.53;;;19.89;87.93
49463;BME280;35357;51.722;0.500;2023-06-19T06:37:10;100802.73;;;20.20;87.28
49463;BME280;35357;51.722;0.500;2023-06-19T06:39:37;100801.65;;;19.67;89.75
49463;BME280;35357;51.722;0.500;2023-06-19T06:42:05;100806.13;;;20.20;87.35
49463;BME280;35357;51.722;0.500;2023-06-19T06:44:32;100810.66;;;19.35;89.06
49463;BME280;35357;51.722;0.500;2023-06-19T06:46:59;100814.35;;;19.23;90.29
49463;BME280;35357;51.722;0.500;2023-06-19T06:49:26;100819.13;;;19.80;87.77
49463;BME280;35357;51.722;0.500;2023-06-19T06:51:53;100820.68;;;18.48;93.42
49463;BME280;35357;51.722;0.500;2023-06-19T06:54:20;100823.43;;;18.74;94.37
49463;BME280;35357;51.722;0.500;2023-06-19T06:56:47;100825.10;;;19.34;90.89
49463;BME280;35357;51.722;0.500;2023-06-19T06:59:14;100830.66;;;19.65;88.80
49463;BME280;35357;51.722;0.500;2023-06-19T07:01:41;100831.07;;;19.67;89.17
49463;BME280;35357;51.722;0.500;2023-06-19T07:04:08;100830.78;;;18.15;94.34
49463;BME280;35357;51.722;0.500;2023-06-19T07:06:36;100829.26;;;18.99;92.53
49463;BME280;35357;51.722;0.500;2023-06-19T07:09:03;100830.73;;;19.43;90.24
49463;BME280;35357;51.722;0.500;2023-06-19T07:11:30;100827.17;;;19.44;88.33
49463;BME280;35357;51.722;0.500;2023-06-19T07:13:57;100823.47;;;18.36;93.20
49463;BME280;35357;51.722;0.500;2023-06-19T07:16:24;100823.79;;;20.07;86.97
49463;BME280;35357;51.722;0.500;2023-06-19T07:18:51;100822.56;;;19.26;90.66
49463;BME280;35357;51.722;0.500;2023-06-19T07:21:19;100826.16;;;19.61;87.96
49463;BME280;35357;51.722;0.500;2023-06-19T07:23:46;100828.81;;;20.44;84.68
49463;BME280;35357;51.722;0.500;2023-06-19T07:26:14;100833.12;;;19.83;86.42
49463;BME280;35357;51.722;0.500;2023-06-19T07:28:41;100833.75;;;19.87;85.98
49463;BME280;35357;51.722;0.500;2023-06-19T07:31:08;100832.41;;;19.95;85.81
49463;BME280;35357;51.722;0.500;2023-06-19T07:33:35;100826.15;;;21.44;81.55
49463;BME280;35357;51.722;0.500;2023-06-19T07:36:02;100826.03;;;20.66;82.68
49463;BME280;35357;51.722;0.500;2023-06-19T07:38:30;100830.39;;;19.71;84.75
49463;BME280;35357;51.722;0.500;2023-06-19T07:40:58;100828.93;;;19.45;87.89
49463;BME280;35357;51.722;0.500;2023-06-19T07:43:25;100833.21;;;20.14;84.90
49463;BME280;35357;51.722;0.500;2023-06-19T07:45:52;100837.99;;;20.64;83.57
49463;BME280;35357;51.722;0.500;2023-06-19T07:48:19;100829.40;;;21.10;82.63
49463;BME280;35357;51.722;0.500;2023-06-19T07:50:45;100830.94;;;21.21;80.80
49463;BME280;35357;51.722;0.500;2023-06-19T07:53:13;100836.10;;;21.43;80.10
49463;BME280;35357;51.722;0.500;2023-06-19T07:55:40;100838.29;;;21.11;81.10
49463;BME280;35357;51.722;0.500;2023-06-19T07:58:07;100847.13;;;20.53;79.38
49463;BME280;35357;51.722;0.500;2023-06-19T08:00:35;100848.49;;;20.64;79.40
49463;BME280;35357;51.722;0.500;2023-06-19T08:03:02;100851.70;;;20.81;77.80
49463;BME280;35357;51.722;0.500;2023-06-19T08:05:29;100850.61;;;20.05;81.55
49463;BME280;35357;51.722;0.500;2023-06-19T08:07:56;100851.54;;;18.97;83.96
49463;BME280;35357;51.722;0.500;2023-06-19T08:10:25;100850.21;;;19.38;85.56
49463;BME280;35357;51.722;0.500;2023-06-19T08:12:52;100856.50;;;19.85;83.51
49463;BME280;35357;51.722;0.500;2023-06-19T08:15:20;100857.63;;;20.08;82.47
49463;BME280;35357;51.722;0.500;2023-06-19T08:17:46;100853.06;;;19.33;86.25
49463;BME280;35357;51.722;0.500;2023-06-19T08:20:13;100858.73;;;19.99;83.00
49463;BME280;35357;51.722;0.500;2023-06-19T08:22:41;100860.65;;;20.52;80.30
49463;BME280;35357;51.722;0.500;2023-06-19T08:25:08;100859.61;;;18.72;86.87
49463;BME280;35357;51.722;0.500;2023-06-19T08:27:36;100861.03;;;19.28;85.23
49463;BME280;35357;51.722;0.500;2023-06-19T08:30:04;100859.58;;;20.09;83.35
49463;BME280;35357;51.722;0.500;2023-06-19T08:32:31;100859.05;;;20.12;82.24
49463;BME280;35357;51.722;0.500;2023-06-19T08:34:58;100858.54;;;19.64;83.71
49463;BME280;35357;51.722;0.500;2023-06-19T08:37:25;100860.97;;;20.68;82.31
49463;BME280;35357;51.722;0.500;2023-06-19T08:39:52;100860.37;;;21.65;76.46
49463;BME280;35357;51.722;0.500;2023-06-19T08:42:19;100860.18;;;21.45;77.82
49463;BME280;35357;51.722;0.500;2023-06-19T08:44:46;100862.56;;;21.79;76.36
49463;BME280;35357;51.722;0.500;2023-06-19T08:47:13;100860.34;;;21.28;76.17
49463;BME280;35357;51.722;0.500;2023-06-19T08:49:40;100859.61;;;21.75;76.17
49463;BME280;35357;51.722;0.500;2023-06-19T08:52:08;100854.35;;;21.09;77.02
49463;BME280;35357;51.722;0.500;2023-06-19T08:54:35;100860.34;;;20.68;77.33
49463;BME280;35357;51.722;0.500;2023-06-19T08:57:02;100857.33;;;21.09;75.95
49463;BME280;35357;51.722;0.500;2023-06-19T08:59:30;100861.30;;;21.78;74.73
49463;BME280;35357;51.722;0.500;2023-06-19T09:01:57;100854.28;;;22.81;71.94
49463;BME280;35357;51.722;0.500;2023-06-19T09:04:26;100858.65;;;21.58;73.52
49463;BME280;35357;51.722;0.500;2023-06-19T09:06:54;100856.79;;;21.15;74.08
49463;BME280;35357;51.722;0.500;2023-06-19T09:09:24;100859.44;;;22.50;71.87
49463;BME280;35357;51.722;0.500;2023-06-19T09:11:59;100862.70;;;22.14;71.39
49463;BME280;35357;51.722;0.500;2023-06-19T09:14:35;100860.42;;;21.86;71.96
49463;BME280;35357;51.722;0.500;2023-06-19T09:17:04;100857.34;;;22.91;68.56
49463;BME280;35357;51.722;0.500;2023-06-19T09:19:32;100862.98;;;22.95;68.21
49463;BME280;35357;51.722;0.500;2023-06-19T09:22:01;100863.75;;;23.65;66.54
49463;BME280;35357;51.722;0.500;2023-06-19T09:24:37;100865.14;;;22.96;67.38
49463;BME280;35357;51.722;0.500;2023-06-19T09:27:08;100870.73;;;23.10;67.29
49463;BME280;35357;51.722;0.500;2023-06-19T09:29:36;100875.79;;;23.46;65.73
49463;BME280;35357;51.722;0.500;2023-06-19T09:32:14;100882.07;;;23.19;64.85
49463;BME280;35357;51.722;0.500;2023-06-19T09:34:41;100878.65;;;22.64;67.73
49463;BME280;35357;51.722;0.500;2023-06-19T09:37:09;100884.59;;;22.93;64.84
49463;BME280;35357;51.722;0.500;2023-06-19T09:39:37;100881.57;;;22.15;67.23
49463;BME280;35357;51.722;0.500;2023-06-19T09:42:06;100886.64;;;22.75;66.23
49463;BME280;35357;51.722;0.500;2023-06-19T09:44:40;100885.22;;;23.62;64.79
49463;BME280;35357;51.722;0.500;2023-06-19T09:47:12;100890.55;;;23.33;64.72
49463;BME280;35357;51.722;0.500;2023-06-19T09:49:41;100887.14;;;23.96;64.03
49463;BME280;35357;51.722;0.500;2023-06-19T09:52:08;100887.96;;;24.28;62.82
49463;BME280;35357;51.722;0.500;2023-06-19T09:54:36;100887.73;;;21.89;67.72
49463;BME280;35357;51.722;0.500;2023-06-19T09:57:06;100887.82;;;22.86;65.86
49463;BME280;35357;51.722;0.500;2023-06-19T09:59:33;100886.91;;;23.86;64.06
49463;BME280;35357;51.722;0.500;2023-06-19T10:02:01;100889.10;;;23.16;67.35
49463;BME280;35357;51.722;0.500;2023-06-19T10:04:28;100889.73;;;23.61;63.75
49463;BME280;35357;51.722;0.500;2023-06-19T10:06:56;100890.45;;;24.06;62.78
49463;BME280;35357;51.722;0.500;2023-06-19T10:09:23;100892.12;;;22.79;65.48
49463;BME280;35357;51.722;0.500;2023-06-19T10:11:51;100888.57;;;23.88;63.20
49463;BME280;35357;51.722;0.500;2023-06-19T10:14:19;100887.43;;;24.46;63.01
49463;BME280;35357;51.722;0.500;2023-06-19T10:16:46;100893.69;;;23.36;61.23
49463;BME280;35357;51.722;0.500;2023-06-19T10:19:15;100895.52;;;23.20;62.99
49463;BME280;35357;51.722;0.500;2023-06-19T10:21:45;100890.56;;;22.36;65.41
49463;BME280;35357;51.722;0.500;2023-06-19T10:24:14;100888.21;;;23.54;62.49
49463;BME280;35357;51.722;0.500;2023-06-19T10:26:42;100890.58;;;23.09;64.41
49463;BME280;35357;51.722;0.500;2023-06-19T10:29:16;100893.13;;;23.06;63.91
49463;BME280;35357;51.722;0.500;2023-06-19T10:31:44;100893.89;;;24.02;63.34
49463;BME280;35357;51.722;0.500;2023-06-19T10:34:11;100900.65;;;25.01;61.78
49463;BME280;35357;51.722;0.500;2023-06-19T10:36:39;100894.97;;;23.98;60.13
49463;BME280;35357;51.722;0.500;2023-06-19T10:39:05;100889.42;;;24.00;61.10
49463;BME280;35357;51.722;0.500;2023-06-19T10:41:32;100892.12;;;24.59;60.93
49463;BME280;35357;51.722;0.500;2023-06-19T10:44:02;100894.85;;;23.06;61.66
49463;BME280;35357;51.722;0.500;2023-06-19T10:46:30;100888.87;;;24.03;61.56
49463;BME280;35357;51.722;0.500;2023-06-19T10:48:58;100892.87;;;24.19;62.64
49463;BME280;35357;51.722;0.500;2023-06-19T10:51:25;100896.90;;;23.83;58.12
49463;BME280;35357;51.722;0.500;2023-06-19T10:53:54;100895.84;;;22.83;60.91
49463;BME280;35357;51.722;0.500;2023-06-19T10:56:23;100889.35;;;23.38;62.43
49463;BME280;35357;51.722;0.500;2023-06-19T10:58:57;100886.97;;;24.01;61.14
49463;BME280;35357;51.722;0.500;2023-06-19T11:01:32;100894.04;;;25.71;56.40
49463;BME280;35357;51.722;0.500;2023-06-19T11:03:59;100895.80;;;24.49;55.30
49463;BME280;35357;51.722;0.500;2023-06-19T11:06:28;100881.17;;;24.34;57.08
49463;BME280;35357;51.722;0.500;2023-06-19T11:08:55;100884.91;;;24.78;58.07
49463;BME280;35357;51.722;0.500;2023-06-19T11:11:23;100882.83;;;25.21;54.83
49463;BME280;35357;51.722;0.500;2023-06-19T11:13:50;100889.10;;;25.26;55.75
49463;BME280;35357;51.722;0.500;2023-06-19T11:16:17;100886.70;;;25.47;55.14
49463;BME280;35357;51.722;0.500;2023-06-19T11:18:44;100882.32;;;23.74;59.36
49463;BME280;35357;51.722;0.500;2023-06-19T11:21:11;100881.36;;;25.57;57.15
49463;BME280;35357;51.722;0.500;2023-06-19T11:23:38;100875.27;;;25.28;55.72
49463;BME280;35357;51.722;0.500;2023-06-19T11:26:06;100878.90;;;25.88;54.31
49463;BME280;35357;51.722;0.500;2023-06-19T11:28:33;100871.01;;;26.31;54.39
49463;BME280;35357;51.722;0.500;2023-06-19T11:31:01;100871.10;;;26.38;52.50
49463;BME280;35357;51.722;0.500;2023-06-19T11:33:29;100882.62;;;25.34;55.81
49463;BME280;35357;51.722;0.500;2023-06-19T11:36:01;100879.59;;;25.66;55.40
49463;BME280;35357;51.722;0.500;2023-06-19T11:38:28;100879.89;;;24.95;56.56
49463;BME280;35357;51.722;0.500;2023-06-19T11:40:57;100877.68;;;24.93;55.13
49463;BME280;35357;51.722;0.500;2023-06-19T11:43:24;100876.01;;;24.21;57.67
49463;BME280;35357;51.722;0.500;2023-06-19T11:45:52;100869.85;;;25.02;55.69
49463;BME280;35357;51.722;0.500;2023-06-19T11:48:23;100875.66;;;25.80;52.44
49463;BME280;35357;51.722;0.500;2023-06-19T11:50:51;100871.78;;;25.50;54.08
49463;BME280;35357;51.722;0.500;2023-06-19T11:53:19;100860.96;;;25.96;53.37
49463;BME280;35357;51.722;0.500;2023-06-19T11:55:46;100856.84;;;25.53;55.27
49463;BME280;35357;51.722;0.500;2023-06-19T11:58:14;100859.81;;;26.36;52.72
49463;BME280;35357;51.722;0.500;2023-06-19T12:00:42;100860.89;;;27.05;48.38
49463;BME280;35357;51.722;0.500;2023-06-19T12:03:09;100857.79;;;25.75;52.86
49463;BME280;35357;51.722;0.500;2023-06-19T12:05:37;100851.11;;;26.73;50.22
49463;BME280;35357;51.722;0.500;2023-06-19T12:08:05;100859.53;;;26.12;50.92
49463;BME280;35357;51.722;0.500;2023-06-19T12:10:32;100857.38;;;26.25;48.61
49463;BME280;35357;51.722;0.500;2023-06-19T12:13:00;100861.38;;;25.56;50.52
49463;BME280;35357;51.722;0.500;2023-06-19T12:15:26;100862.12;;;26.49;48.62
49463;BME280;35357;51.722;0.500;2023-06-19T12:17:53;100864.03;;;25.53;50.25
49463;BME280;35357;51.722;0.500;2023-06-19T12:20:20;100862.06;;;26.22;49.67
49463;BME280;35357;51.722;0.500;2023-06-19T12:22:48;100872.79;;;25.27;49.72
49463;BME280;35357;51.722;0.500;2023-06-19T12:25:15;100867.84;;;25.99;48.47
49463;BME280;35357;51.722;0.500;2023-06-19T12:27:43;100876.76;;;25.28;49.98
49463;BME280;35357;51.722;0.500;2023-06-19T12:30:10;100880.26;;;23.94;52.25
49463;BME280;35357;51.722;0.500;2023-06-19T12:32:38;100869.34;;;25.46;47.88
49463;BME280;35357;51.722;0.500;2023-06-19T12:35:06;100870.27;;;24.85;52.80
49463;BME280;35357;51.722;0.500;2023-06-19T12:37:33;100861.65;;;25.87;48.73
49463;BME280;35357;51.722;0.500;2023-06-19T12:40:00;100854.70;;;26.35;50.60
49463;BME280;35357;51.722;0.500;2023-06-19T12:42:28;100860.03;;;25.34;51.34
49463;BME280;35357;51.722;0.500;2023-06-19T12:44:55;100849.69;;;27.14;46.58
49463;BME280;35357;51.722;0.500;2023-06-19T12:47:22;100850.47;;;26.65;48.93
49463;BME280;35357;51.722;0.500;2023-06-19T12:49:49;100850.30;;;25.70;49.98